Hlavní strana
METAR-TAF:

METAR-TAF

Letiště :

Letiště Vitebsk

Vitebsk, Bělorusko

zeměpisná šířka: 55-10N, zeměpisná délka: 030-13E, výška: 176 m

Aktuální stav počasí

Zpráva byla vytvořena před 30 minutami, v 12:00 UTC
Jihovýchodní vítr 6 kt
Teplota 15°C
Vlhkost vzduchu 82%
Tlak 1001 hPa
Viditelnost: 6000 m
Oblačno až skoro zataženo ve výšce 1600 ft, Cumulonimbus.
slabé dešťové přeháňky

METAR: UMII 041200Z 14003MPS 6000 -SHRA BKN016CB 15/12 Q1001 TEMPO 2100 BKN005

Čas: 15:30 (12:30 UTC)

Předpověď počasí

Zpráva byla vytvořena před 1 hodinou a 23 minutami, v 11:07 UTC
Předpověď platná od 04 v 12 UTC do 04 v 21 UTC
Jižní vítr 10 kt
Viditelnost 10 km a více
Oblačno až skoro zataženo ve výšce 1500 ft
Dočasný
od 04 v 12 UTC do 04 v 21 UTC
vítr z různých směrů 23 kt
Viditelnost: 2000 m
Oblačno až skoro zataženo ve výšce 500 ft
Oblačno až skoro zataženo ve výšce 1000 ft, Cumulonimbus.
bouřka, déšť, kroupy

TAF: UMII 041107Z 0412/0421 18005MPS 9999 BKN015 TEMPO 0412/0421 VRB12MPS 2000 TSRAGR BKN005 BKN010CB

Stav a předpovědi počasí z více než 4 000 letišť (zprávy METAR a TAF).

Červené a žluté tečky na mapě představují dostupné meteorologické stanice.

Když kurzor umístíte na tečku, zobrazí se název stanice.

Pak kliknutím zobrazíte stav a předpověď počasí.

Chcete-li změnit mapu, kliknutím na zelené tlačítko se znaménkem +mapu přiblížíte, kliknutím na zelené tlačítko se znaménkem – mapu oddálíte a kliknutím na zelené šipky přejdete na sousední mapy.


METAR-TAF: